createdAt,value
2023-03-22T00:02:04.553Z,94078.16
2023-03-22T00:04:31.554Z,94074.13
2023-03-22T00:06:58.207Z,94074.03
2023-03-22T00:09:24.909Z,94078.94
2023-03-22T00:11:51.555Z,94055.00
2023-03-22T00:14:19.179Z,94066.28
2023-03-22T00:16:49.452Z,94060.44
2023-03-22T00:19:17.518Z,94072.63
2023-03-22T00:21:44.768Z,94061.66
2023-03-22T00:24:12.004Z,94066.56
2023-03-22T00:26:38.964Z,94045.66
2023-03-22T00:29:06.013Z,94063.50
2023-03-22T00:31:34.220Z,94042.50
2023-03-22T00:34:00.969Z,94059.63
2023-03-22T00:36:27.704Z,94055.72
2023-03-22T00:38:54.367Z,94053.47
2023-03-22T00:41:23.527Z,94065.78
2023-03-22T00:43:51.726Z,94067.03
2023-03-22T00:46:20.890Z,94062.78
2023-03-22T00:48:48.298Z,94051.34
2023-03-22T00:51:15.747Z,94053.03
2023-03-22T00:53:44.019Z,94064.13
2023-03-22T00:56:15.884Z,94059.97
2023-03-22T00:58:55.442Z,94043.72
2023-03-22T01:01:22.317Z,94048.28
2023-03-22T01:03:50.756Z,94046.16
2023-03-22T01:06:18.020Z,94043.66
2023-03-22T01:08:45.559Z,94044.00
2023-03-22T01:11:12.952Z,94049.63
2023-03-22T01:13:41.998Z,94046.63
2023-03-22T01:16:10.109Z,94048.28
2023-03-22T01:18:37.027Z,94039.00
2023-03-22T01:21:04.335Z,94038.50
2023-03-22T01:23:31.921Z,94043.00
2023-03-22T01:25:58.995Z,94038.75
2023-03-22T01:28:27.315Z,94029.22
2023-03-22T01:30:55.799Z,94037.91
2023-03-22T01:33:22.907Z,94020.22
2023-03-22T01:35:51.065Z,94023.75
2023-03-22T01:38:18.052Z,94029.75
2023-03-22T01:41:02.661Z,94030.75
2023-03-22T01:43:31.946Z,94027.34
2023-03-22T01:45:59.359Z,94017.47
2023-03-22T01:48:35.194Z,93995.41
2023-03-22T01:51:07.224Z,94021.47
2023-03-22T01:53:45.875Z,94005.00
2023-03-22T01:56:13.435Z,93998.63
2023-03-22T01:58:42.137Z,94011.66
2023-03-22T02:01:11.629Z,94007.09
2023-03-22T02:04:04.812Z,94003.38
2023-03-22T02:06:32.483Z,94006.81
2023-03-22T02:09:07.903Z,94000.13
2023-03-22T02:11:41.719Z,94013.59
2023-03-22T02:14:36.814Z,94009.25
2023-03-22T02:17:59.702Z,94005.78
2023-03-22T02:20:48.309Z,94013.50
2023-03-22T02:23:21.186Z,94006.69
2023-03-22T02:26:18.228Z,94011.06
2023-03-22T02:28:47.811Z,94000.38
2023-03-22T02:31:36.613Z,93999.91
2023-03-22T02:34:48.304Z,93992.75
2023-03-22T02:37:49.331Z,93989.94
2023-03-22T02:40:18.647Z,93989.97
2023-03-22T02:42:59.108Z,93986.69
2023-03-22T02:45:34.891Z,93978.88
2023-03-22T02:48:11.906Z,93979.81
2023-03-22T02:50:46.604Z,93967.97
2023-03-22T02:53:21.050Z,93970.16
2023-03-22T02:56:04.294Z,93987.56
2023-03-22T02:59:03.758Z,93978.00
2023-03-22T03:01:56.296Z,93968.44
2023-03-22T03:04:33.145Z,93973.31
2023-03-22T03:07:09.385Z,93989.19
2023-03-22T03:09:40.052Z,93961.91
2023-03-22T03:12:18.706Z,93988.41
2023-03-22T03:14:45.668Z,93978.88
2023-03-22T03:17:38.023Z,93977.88
2023-03-22T03:20:30.041Z,93976.06
2023-03-22T03:23:13.842Z,93977.69
2023-03-22T03:26:06.728Z,93986.53
2023-03-22T03:28:47.725Z,93981.97
2023-03-22T03:31:29.829Z,93989.06
2023-03-22T03:34:05.542Z,93993.59
2023-03-22T03:36:37.835Z,93996.91
2023-03-22T03:39:07.823Z,93995.78
2023-03-22T03:41:35.086Z,93988.56
2023-03-22T03:44:03.771Z,93994.41
2023-03-22T03:46:30.796Z,93980.75
2023-03-22T03:48:58.552Z,93993.13
2023-03-22T03:51:27.371Z,93994.38
2023-03-22T03:53:54.098Z,93980.25
2023-03-22T03:56:21.944Z,93988.56
2023-03-22T03:58:49.864Z,93975.88
2023-03-22T04:01:19.651Z,93975.56
2023-03-22T04:04:09.570Z,93986.84
2023-03-22T04:06:43.976Z,93996.59
2023-03-22T04:09:16.232Z,93984.34
2023-03-22T04:11:46.530Z,93987.00
2023-03-22T04:14:14.603Z,93997.84
2023-03-22T04:16:41.601Z,94003.16
2023-03-22T04:19:11.628Z,93994.09
2023-03-22T04:21:38.894Z,93992.19
2023-03-22T04:24:06.746Z,93981.50
2023-03-22T04:26:36.889Z,93990.94
2023-03-22T04:29:16.307Z,93987.47
2023-03-22T04:31:48.095Z,93986.19
2023-03-22T04:34:29.316Z,93995.00
2023-03-22T04:37:02.734Z,93992.31
2023-03-22T04:39:53.369Z,93984.63
2023-03-22T04:42:38.514Z,93990.59
2023-03-22T04:45:29.271Z,93990.59
2023-03-22T04:48:00.928Z,93997.63
2023-03-22T04:50:28.268Z,93985.56
2023-03-22T04:52:59.485Z,93986.53
2023-03-22T04:55:27.718Z,93982.75
2023-03-22T04:57:54.809Z,93977.56
2023-03-22T05:00:24.019Z,93976.81
2023-03-22T05:02:51.568Z,93979.63
2023-03-22T05:05:29.157Z,93979.31
2023-03-22T05:07:56.438Z,93982.75
2023-03-22T05:10:24.296Z,93972.09
2023-03-22T05:12:51.148Z,93971.94
2023-03-22T05:15:22.366Z,93987.47
2023-03-22T05:17:51.007Z,93994.38
2023-03-22T05:20:17.737Z,93988.72
2023-03-22T05:22:56.899Z,93988.88
2023-03-22T05:25:25.846Z,93987.31
2023-03-22T05:27:54.261Z,93979.78
2023-03-22T05:30:35.011Z,93994.03
2023-03-22T05:33:14.256Z,93981.16
2023-03-22T05:35:45.485Z,93983.50
2023-03-22T05:38:12.260Z,93985.06
2023-03-22T05:40:45.009Z,93989.03
2023-03-22T05:43:12.322Z,93984.00
2023-03-22T05:45:43.516Z,93968.66
2023-03-22T05:48:23.365Z,93970.06
2023-03-22T05:50:50.190Z,93982.63
2023-03-22T05:53:17.527Z,93974.31
2023-03-22T05:56:00.842Z,93977.13
2023-03-22T05:58:31.717Z,93975.84
2023-03-22T06:01:13.183Z,93972.25
2023-03-22T06:03:46.100Z,93977.06
2023-03-22T06:06:20.582Z,93971.25
2023-03-22T06:09:07.036Z,93972.78
2023-03-22T06:11:41.426Z,93968.38
2023-03-22T06:14:08.456Z,93971.53
2023-03-22T06:16:53.822Z,93977.00
2023-03-22T06:19:20.514Z,93969.63
2023-03-22T06:21:47.769Z,93981.09
2023-03-22T06:24:16.411Z,93978.84
2023-03-22T06:26:43.083Z,93977.88
2023-03-22T06:29:09.757Z,93970.56
2023-03-22T06:31:36.961Z,93971.91
2023-03-22T06:34:06.074Z,93974.06
2023-03-22T06:36:39.210Z,93972.53
2023-03-22T06:39:12.515Z,93976.50
2023-03-22T06:41:42.955Z,93975.53
2023-03-22T06:44:09.729Z,93980.22
2023-03-22T06:46:59.219Z,93970.84
2023-03-22T06:49:44.420Z,93969.41
2023-03-22T06:52:17.703Z,93973.66
2023-03-22T06:54:44.613Z,93971.81
2023-03-22T06:57:11.722Z,93969.47
2023-03-22T06:59:38.599Z,93967.69
2023-03-22T07:02:05.314Z,93967.75
2023-03-22T07:04:33.294Z,93955.66
2023-03-22T07:06:59.987Z,93954.09
2023-03-22T07:09:27.415Z,93957.19
2023-03-22T07:11:57.638Z,93959.75
2023-03-22T07:14:24.605Z,93961.47
2023-03-22T07:16:58.488Z,93972.84
2023-03-22T07:19:27.812Z,93972.91
2023-03-22T07:21:55.407Z,93973.69
2023-03-22T07:24:23.124Z,93977.81
2023-03-22T07:26:50.346Z,93974.59
2023-03-22T07:29:22.025Z,93982.94
2023-03-22T07:31:49.211Z,93976.66
2023-03-22T07:34:22.204Z,93966.22
2023-03-22T07:37:11.630Z,93964.25
2023-03-22T07:39:40.775Z,93976.31
2023-03-22T07:42:07.558Z,93981.22
2023-03-22T07:44:54.474Z,93982.16
2023-03-22T07:47:39.502Z,93990.00
2023-03-22T07:50:33.028Z,93979.31
2023-03-22T07:53:04.030Z,93977.38
2023-03-22T07:55:31.622Z,93981.34
2023-03-22T07:57:58.264Z,93982.63
2023-03-22T08:00:25.119Z,93969.22
2023-03-22T08:03:14.592Z,93976.66
2023-03-22T08:06:07.757Z,93976.91
2023-03-22T08:08:36.991Z,93977.16
2023-03-22T08:11:06.461Z,93976.78
2023-03-22T08:13:33.727Z,93981.06
2023-03-22T08:16:01.046Z,93981.09
2023-03-22T08:18:27.892Z,93986.16
2023-03-22T08:20:56.649Z,93978.91
2023-03-22T08:23:40.455Z,93983.28
2023-03-22T08:26:45.651Z,93976.91
2023-03-22T08:29:20.812Z,93980.09
2023-03-22T08:31:47.853Z,93979.06
2023-03-22T08:34:14.608Z,93971.56
2023-03-22T08:36:41.832Z,93974.81
2023-03-22T08:39:09.563Z,93971.34
2023-03-22T08:41:44.697Z,93986.41
2023-03-22T08:44:11.510Z,93988.03
2023-03-22T08:46:38.247Z,93988.03
2023-03-22T08:49:05.013Z,93984.19
2023-03-22T08:51:35.719Z,93998.84
2023-03-22T08:54:16.733Z,93983.59
2023-03-22T08:57:03.509Z,93984.25
2023-03-22T09:00:06.826Z,93974.97
2023-03-22T09:02:43.547Z,93973.06
2023-03-22T09:05:10.507Z,93973.59
2023-03-22T09:07:38.820Z,93975.16
2023-03-22T09:10:12.297Z,93975.47
2023-03-22T09:12:42.678Z,93965.69
2023-03-22T09:15:10.408Z,93974.22
2023-03-22T09:17:40.458Z,93970.81
2023-03-22T09:20:12.787Z,93968.63
2023-03-22T09:22:41.981Z,93981.03
2023-03-22T09:25:12.626Z,93976.38
2023-03-22T09:27:42.104Z,93979.88
2023-03-22T09:30:09.259Z,93962.84
2023-03-22T09:32:36.052Z,93957.00
2023-03-22T09:35:04.727Z,93971.38
2023-03-22T09:37:39.314Z,93965.56
2023-03-22T09:40:07.912Z,93960.50
2023-03-22T09:42:51.285Z,93951.97
2023-03-22T09:45:32.245Z,93949.25
2023-03-22T09:47:59.725Z,93939.94
2023-03-22T09:50:29.986Z,93932.16
2023-03-22T09:52:57.780Z,93928.63
2023-03-22T09:55:41.866Z,93934.75
2023-03-22T09:58:29.709Z,93925.94
2023-03-22T10:00:59.524Z,93924.75
2023-03-22T10:03:43.983Z,93921.66
2023-03-22T10:06:22.832Z,93927.09
2023-03-22T10:09:04.702Z,93918.22
2023-03-22T10:12:16.925Z,93912.78
2023-03-22T10:14:51.676Z,93917.78
2023-03-22T10:17:23.524Z,93913.53
2023-03-22T10:20:05.473Z,93916.25
2023-03-22T10:22:40.786Z,93912.38
2023-03-22T10:25:09.501Z,93907.66
2023-03-22T10:27:37.424Z,93899.00
2023-03-22T10:30:18.260Z,93909.72
2023-03-22T10:33:12.219Z,93898.91
2023-03-22T10:35:39.323Z,93899.81
2023-03-22T10:38:09.509Z,93906.94
2023-03-22T10:40:37.562Z,93897.94
2023-03-22T10:43:15.926Z,93903.75
2023-03-22T10:45:43.370Z,93897.53
2023-03-22T10:48:30.317Z,93898.13
2023-03-22T10:50:58.931Z,93884.28
2023-03-22T10:53:45.679Z,93889.28
2023-03-22T10:56:19.004Z,93887.22
2023-03-22T10:58:46.379Z,93887.38
2023-03-22T11:01:25.517Z,93873.38
2023-03-22T11:03:57.121Z,93878.03
2023-03-22T11:06:29.905Z,93875.78
2023-03-22T11:09:23.977Z,93877.91
2023-03-22T11:11:56.806Z,93868.59
2023-03-22T11:14:31.822Z,93866.34
2023-03-22T11:17:02.575Z,93859.63
2023-03-22T11:19:34.068Z,93851.44
2023-03-22T11:22:02.750Z,93849.06
2023-03-22T11:24:32.039Z,93862.75
2023-03-22T11:27:29.655Z,93858.16
2023-03-22T11:30:21.739Z,93854.97
2023-03-22T11:32:49.478Z,93838.00
2023-03-22T11:35:17.817Z,93846.78
2023-03-22T11:37:47.501Z,93845.53
2023-03-22T11:40:20.468Z,93850.88
2023-03-22T11:42:49.396Z,93835.81
2023-03-22T11:45:25.696Z,93832.84
2023-03-22T11:47:53.018Z,93844.13
2023-03-22T11:50:27.922Z,93821.59
2023-03-22T11:52:54.974Z,93829.16
2023-03-22T11:55:21.695Z,93833.91
2023-03-22T11:57:50.280Z,93822.34
2023-03-22T12:00:22.076Z,93824.97
2023-03-22T12:02:50.372Z,93823.28
2023-03-22T12:05:27.341Z,93815.91
2023-03-22T12:08:17.451Z,93809.50
2023-03-22T12:10:48.226Z,93814.50
2023-03-22T12:13:25.598Z,93804.69
2023-03-22T12:16:00.953Z,93801.56
2023-03-22T12:18:38.872Z,93806.50
2023-03-22T12:21:05.863Z,93805.13
2023-03-22T12:23:37.543Z,93807.94
2023-03-22T12:26:16.391Z,93812.59
2023-03-22T12:29:05.048Z,93802.53
2023-03-22T12:31:44.546Z,93801.75
2023-03-22T12:34:21.176Z,93797.84
2023-03-22T12:36:52.620Z,93788.81
2023-03-22T12:39:35.181Z,93797.91
2023-03-22T12:42:21.961Z,93797.16
2023-03-22T12:45:04.058Z,93791.72
2023-03-22T12:47:51.240Z,93798.41
2023-03-22T12:50:28.891Z,93793.44
2023-03-22T12:52:57.054Z,93789.00
2023-03-22T12:55:33.755Z,93794.72
2023-03-22T12:58:00.743Z,93795.00
2023-03-22T13:00:36.523Z,93788.00
2023-03-22T13:03:18.743Z,93787.44
2023-03-22T13:05:58.735Z,93778.31
2023-03-22T13:08:25.591Z,93773.91
2023-03-22T13:11:03.198Z,93784.22
2023-03-22T13:13:29.786Z,93780.44
2023-03-22T13:16:02.580Z,93773.56
2023-03-22T13:18:35.685Z,93780.03
2023-03-22T13:21:32.561Z,93775.16
2023-03-22T13:24:10.212Z,93771.66
2023-03-22T13:26:47.678Z,93770.44
2023-03-22T13:29:32.713Z,93768.16
2023-03-22T13:32:06.077Z,93758.63
2023-03-22T13:34:48.804Z,93756.13
2023-03-22T13:37:31.180Z,93745.63
2023-03-22T13:40:02.397Z,93747.06
2023-03-22T13:42:37.974Z,93750.72
2023-03-22T13:45:09.914Z,93750.19
2023-03-22T13:47:46.898Z,93745.38
2023-03-22T13:50:22.530Z,93739.91
2023-03-22T13:52:59.687Z,93747.56
2023-03-22T13:55:46.887Z,93749.78
2023-03-22T13:58:44.731Z,93741.59
2023-03-22T14:01:21.162Z,93737.81
2023-03-22T14:03:50.366Z,93736.97
2023-03-22T14:06:35.328Z,93729.22
2023-03-22T14:09:20.917Z,93723.38
2023-03-22T14:11:57.022Z,93715.78
2023-03-22T14:14:29.925Z,93725.19
2023-03-22T14:17:13.292Z,93723.47
2023-03-22T14:19:42.052Z,93721.84
